Time;durP1;ratioP1;P1;durP2;ratioP2;P2;SDS_P1;SDS_P2;PMS_P1;PMS_P2;Temp;Humidity;BMP_temperature;BMP_pressure;BME280_temperature;BME280_humidity;BME280_pressure;Samples;Min_cycle;Max_cycle;Signal;HPM_P1;HPM_P2
2023/08/13 00:00:33;;;;;;;8.85;6.40;;;;;;;16.31;100.00;100872.59;6152924;28;20382;-96
2023/08/13 00:03:36;;;;;;;7.70;5.72;;;;;;;16.38;100.00;100870.22;6163989;28;20073;-96
2023/08/13 00:06:41;;;;;;;9.23;7.18;;;;;;;16.49;100.00;100872.59;6163060;28;20488;-96
2023/08/13 00:09:44;;;;;;;9.55;6.93;;;;;;;16.60;100.00;100875.97;6163238;28;20043;-96
2023/08/13 00:12:47;;;;;;;10.23;7.03;;;;;;;16.72;100.00;100872.09;6179554;28;20042;-96
2023/08/13 00:15:49;;;;;;;9.10;7.18;;;;;;;16.81;100.00;100875.63;6159353;28;20130;-96
2023/08/13 00:18:52;;;;;;;7.80;7.00;;;;;;;16.84;100.00;100875.31;6158514;28;20445;-96
2023/08/13 00:21:55;;;;;;;8.45;7.53;;;;;;;16.86;100.00;100883.84;6174920;28;20145;-96
2023/08/13 00:25:18;;;;;;;10.15;7.45;;;;;;;16.84;100.00;100876.13;6169366;28;20576;-96
2023/08/13 00:28:20;;;;;;;8.25;7.10;;;;;;;16.82;100.00;100883.34;6179107;28;20401;-96
2023/08/13 00:31:29;;;;;;;8.55;7.07;;;;;;;16.73;100.00;100868.53;6165829;28;20369;-96
2023/08/13 00:34:31;;;;;;;9.68;7.18;;;;;;;16.66;100.00;100880.56;6199561;28;20077;-96
2023/08/13 00:37:35;;;;;;;7.97;6.90;;;;;;;16.63;100.00;100878.25;6161655;28;20054;-96
2023/08/13 00:40:37;;;;;;;9.20;7.28;;;;;;;16.59;100.00;100877.72;6164987;28;20046;-96
2023/08/13 00:43:40;;;;;;;14.80;7.00;;;;;;;16.56;100.00;100880.66;6171060;28;20488;-96
2023/08/13 00:46:42;;;;;;;10.57;7.28;;;;;;;16.50;100.00;100887.31;6164813;28;20448;-96
2023/08/13 00:49:45;;;;;;;7.70;6.60;;;;;;;16.46;100.00;100882.53;6181197;28;20468;-96
2023/08/13 00:52:47;;;;;;;7.28;6.40;;;;;;;16.44;100.00;100884.47;6157776;28;20568;-96
2023/08/13 00:55:50;;;;;;;8.52;6.30;;;;;;;16.43;100.00;100894.09;6159131;28;20038;-96
2023/08/13 00:58:53;;;;;;;7.50;6.00;;;;;;;16.40;100.00;100894.41;6158217;28;20618;-96
2023/08/13 01:01:55;;;;;;;5.93;5.35;;;;;;;16.33;100.00;100902.03;6199302;28;20456;-96
2023/08/13 01:04:58;;;;;;;5.80;5.22;;;;;;;16.29;100.00;100897.25;6160348;28;20042;-96
2023/08/13 01:08:45;;;;;;;7.38;5.22;;;;;;;16.21;100.00;100900.59;6193360;28;20044;-96
2023/08/13 01:12:17;;;;;;;8.73;4.95;;;;;;;16.14;100.00;100902.16;6164560;28;20065;-96
2023/08/13 01:15:30;;;;;;;8.63;4.13;;;;;;;16.09;100.00;100896.56;6162472;28;20042;-96
2023/08/13 01:18:33;;;;;;;5.90;4.43;;;;;;;16.04;100.00;100898.78;6169263;28;20618;-96
2023/08/13 01:21:36;;;;;;;5.72;4.10;;;;;;;16.03;100.00;100903.19;6180634;28;20050;-96
2023/08/13 01:24:39;;;;;;;9.55;4.28;;;;;;;16.00;100.00;100902.66;6192648;28;20097;-96
2023/08/13 01:27:56;;;;;;;7.93;4.30;;;;;;;15.95;100.00;100895.28;6164381;28;20059;-96
2023/08/13 01:31:26;;;;;;;5.13;3.63;;;;;;;15.92;100.00;100898.16;6168159;28;20648;-96
2023/08/13 01:34:33;;;;;;;8.88;4.00;;;;;;;15.90;100.00;100887.06;6173473;28;20220;-96
2023/08/13 01:37:36;;;;;;;6.03;3.70;;;;;;;15.86;100.00;100889.16;6154809;28;20039;-96
2023/08/13 01:40:38;;;;;;;7.93;3.72;;;;;;;15.81;100.00;100898.38;6201350;28;20039;-96
2023/08/13 01:43:41;;;;;;;7.97;3.80;;;;;;;15.76;100.00;100893.59;6163633;28;20065;-96
2023/08/13 01:46:44;;;;;;;6.03;3.70;;;;;;;15.75;100.00;100893.75;6195239;28;20051;-96
2023/08/13 01:49:46;;;;;;;6.90;3.65;;;;;;;15.74;100.00;100895.53;6155041;28;20409;-96
2023/08/13 01:52:53;;;;;;;5.88;3.38;;;;;;;15.74;100.00;100895.53;6158955;28;20074;-96
2023/08/13 01:55:56;;;;;;;6.22;3.58;;;;;;;15.72;100.00;100905.28;6170012;28;20066;-96
2023/08/13 01:59:00;;;;;;;3.88;2.88;;;;;;;15.69;100.00;100900.34;6180478;28;20043;-96
2023/08/13 02:02:08;;;;;;;3.90;3.22;;;;;;;15.68;100.00;100909.16;6168921;28;20039;-96
2023/08/13 02:05:13;;;;;;;4.63;3.60;;;;;;;15.64;100.00;100906.00;6162774;28;20043;-96
2023/08/13 02:08:16;;;;;;;8.25;3.30;;;;;;;15.61;100.00;100906.28;6164279;28;20051;-96
2023/08/13 02:11:20;;;;;;;4.38;3.35;;;;;;;15.59;100.00;100907.41;6188899;28;20039;-96
2023/08/13 02:14:22;;;;;;;4.30;3.00;;;;;;;15.54;100.00;100907.81;6155264;28;20583;-96
2023/08/13 02:17:25;;;;;;;3.88;3.22;;;;;;;15.51;100.00;100905.50;6184951;28;20043;-96
2023/08/13 02:20:33;;;;;;;3.63;2.88;;;;;;;15.48;100.00;100909.22;6180620;28;20043;-96
2023/08/13 02:23:35;;;;;;;5.80;3.10;;;;;;;15.46;100.00;100902.50;6164144;28;20108;-96
2023/08/13 02:26:39;;;;;;;7.40;3.85;;;;;;;15.43;100.00;100895.78;6196697;28;20045;-96
2023/08/13 02:29:43;;;;;;;7.30;3.65;;;;;;;15.48;100.00;100903.19;6164708;28;20048;-96
2023/08/13 02:32:45;;;;;;;7.75;3.75;;;;;;;15.45;100.00;100898.25;6165368;28;20039;-96
2023/08/13 02:35:47;;;;;;;5.32;3.42;;;;;;;15.49;100.00;100907.44;6197620;28;20054;-96
2023/08/13 02:38:49;;;;;;;5.93;3.05;;;;;;;15.54;100.00;100910.44;6198011;28;20049;-96
2023/08/13 02:41:51;;;;;;;5.93;3.72;;;;;;;15.59;100.00;100916.03;6167437;28;20042;-96
2023/08/13 02:44:54;;;;;;;5.60;4.07;;;;;;;15.65;100.00;100912.03;6160796;28;20791;-96
2023/08/13 02:47:57;;;;;;;6.50;4.05;;;;;;;15.74;100.00;100913.81;6194867;28;20432;-96
2023/08/13 02:51:06;;;;;;;6.07;4.22;;;;;;;15.82;100.00;100907.84;6164636;28;20035;-96
2023/08/13 02:54:08;;;;;;;9.65;4.88;;;;;;;15.90;100.00;100907.97;6198597;28;20128;-96
2023/08/13 02:57:11;;;;;;;5.03;3.78;;;;;;;15.98;100.00;100913.28;6158313;28;20055;-96
2023/08/13 03:00:14;;;;;;;5.70;3.75;;;;;;;16.04;100.00;100911.84;6147618;28;20059;-96
2023/08/13 03:03:17;;;;;;;6.63;3.85;;;;;;;16.07;100.00;100908.94;6192106;28;20058;-96
2023/08/13 03:06:20;;;;;;;7.40;4.10;;;;;;;16.10;100.00;100909.47;6159755;28;20046;-96
2023/08/13 03:09:23;;;;;;;8.02;5.03;;;;;;;16.13;100.00;100903.13;6155949;28;20580;-96
2023/08/13 03:12:28;;;;;;;5.72;3.45;;;;;;;16.19;100.00;100909.56;6167242;28;20042;-96
2023/08/13 03:15:31;;;;;;;6.28;3.65;;;;;;;16.24;100.00;100909.94;6165572;28;20051;-96
2023/08/13 03:18:34;;;;;;;8.55;4.00;;;;;;;16.27;100.00;100915.69;6196215;28;20054;-96
2023/08/13 03:21:39;;;;;;;6.72;4.43;;;;;;;16.32;100.00;100912.59;6161548;28;20130;-96
2023/08/13 03:24:42;;;;;;;7.97;4.80;;;;;;;16.33;100.00;100909.03;6186893;28;20503;-96
2023/08/13 03:27:46;;;;;;;4.85;4.00;;;;;;;16.31;100.00;100910.97;6155783;28;20586;-96
2023/08/13 03:31:01;;;;;;;5.13;3.90;;;;;;;16.23;100.00;100914.34;6164984;28;20137;-96
2023/08/13 03:34:25;;;;;;;6.07;4.10;;;;;;;16.17;100.00;100911.47;6191788;28;20102;-96
2023/08/13 03:37:28;;;;;;;6.55;4.20;;;;;;;16.10;100.00;100914.69;6161466;28;20683;-96
2023/08/13 03:40:31;;;;;;;7.22;4.75;;;;;;;16.10;100.00;100913.88;6180938;28;20054;-96
2023/08/13 03:43:34;;;;;;;8.43;4.80;;;;;;;16.14;100.00;100915.22;6163403;28;20142;-96
2023/08/13 03:46:39;;;;;;;7.50;4.72;;;;;;;16.18;100.00;100915.75;6173585;28;20622;-96
2023/08/13 03:49:45;;;;;;;5.80;4.30;;;;;;;16.19;100.00;100912.16;6161704;28;20053;-96
2023/08/13 03:52:47;;;;;;;6.78;4.68;;;;;;;16.14;100.00;100921.25;6165409;28;20034;-96
2023/08/13 03:55:51;;;;;;;7.00;4.80;;;;;;;16.03;100.00;100918.06;6160833;28;20053;-96
2023/08/13 03:58:57;;;;;;;5.70;4.25;;;;;;;15.94;100.00;100920.56;6175607;28;20564;-96
2023/08/13 04:02:08;;;;;;;8.68;4.80;;;;;;;15.85;100.00;100921.44;6165026;28;20043;-96
2023/08/13 04:05:11;;;;;;;8.50;4.82;;;;;;;15.79;100.00;100923.81;6165787;28;20182;-96
2023/08/13 04:08:13;;;;;;;4.88;4.38;;;;;;;15.75;100.00;100930.28;6161682;28;20051;-96
2023/08/13 04:11:15;;;;;;;7.55;5.20;;;;;;;15.71;100.00;100933.19;6164803;28;20070;-96
2023/08/13 04:14:18;;;;;;;8.05;5.20;;;;;;;15.70;100.00;100936.78;6174857;28;20051;-96
2023/08/13 04:17:21;;;;;;;7.38;4.72;;;;;;;15.67;100.00;100934.41;6164498;28;20091;-96
2023/08/13 04:20:24;;;;;;;5.80;4.75;;;;;;;15.67;100.00;100941.41;6163251;28;20058;-96
2023/08/13 04:23:26;;;;;;;6.28;4.80;;;;;;;15.66;100.00;100938.00;6164864;28;20098;-96
2023/08/13 04:26:37;;;;;;;6.20;5.60;;;;;;;15.70;100.00;100934.16;6179953;28;20748;-96
2023/08/13 04:29:44;;;;;;;7.90;4.95;;;;;;;15.73;100.00;100938.28;6196661;28;20116;-96
2023/08/13 04:32:59;;;;;;;8.40;5.07;;;;;;;15.74;100.00;100934.69;6165022;28;20043;-96
2023/08/13 04:36:04;;;;;;;8.32;5.45;;;;;;;15.73;100.00;100937.47;6164099;28;20050;-96
2023/08/13 04:39:09;;;;;;;8.25;4.97;;;;;;;15.73;100.00;100938.28;6174954;28;20051;-96
2023/08/13 04:42:11;;;;;;;7.65;5.03;;;;;;;15.73;100.00;100935.66;6136778;28;20074;-96
2023/08/13 04:45:16;;;;;;;7.10;4.95;;;;;;;15.74;100.00;100934.69;6180863;28;20497;-96
2023/08/13 04:48:46;;;;;;;7.05;5.72;;;;;;;15.76;100.00;100939.78;6163433;28;20050;-96
2023/08/13 04:52:00;;;;;;;7.75;5.28;;;;;;;15.75;100.00;100936.34;6163356;28;20121;-96
2023/08/13 04:55:11;;;;;;;9.18;5.07;;;;;;;15.72;100.00;100936.59;6163069;28;20602;-96
2023/08/13 04:58:13;;;;;;;9.30;5.32;;;;;;;15.69;100.00;100934.25;6163470;28;20046;-96
2023/08/13 05:01:16;;;;;;;9.20;5.63;;;;;;;15.69;100.00;100929.91;6163298;28;20776;-96
2023/08/13 05:04:25;;;;;;;7.88;5.85;;;;;;;15.69;100.00;100932.50;6193561;28;20235;-96
2023/08/13 05:07:28;;;;;;;10.15;5.65;;;;;;;15.72;100.00;100939.22;6161211;28;20047;-96
2023/08/13 05:10:32;;;;;;;8.48;5.72;;;;;;;15.74;100.00;100939.91;6169237;28;20146;-96
2023/08/13 05:13:37;;;;;;;9.95;6.30;;;;;;;15.80;100.00;100943.72;6195050;28;20058;-96
2023/08/13 05:16:40;;;;;;;9.82;6.07;;;;;;;15.85;100.00;100936.28;6162064;28;20058;-96
2023/08/13 05:19:42;;;;;;;8.85;5.97;;;;;;;15.87;100.00;100936.94;6168553;28;20039;-96
2023/08/13 05:22:44;;;;;;;9.50;5.88;;;;;;;15.94;100.00;100944.06;6178968;28;20409;-96
2023/08/13 05:25:46;;;;;;;10.07;6.55;;;;;;;16.01;100.00;100941.69;6180527;28;20049;-96
2023/08/13 05:28:49;;;;;;;10.05;6.18;;;;;;;16.11;100.00;100941.63;6172240;28;20063;-96
2023/08/13 05:31:53;;;;;;;11.38;6.30;;;;;;;16.20;100.00;100937.31;6169627;28;20046;-96
2023/08/13 05:34:55;;;;;;;8.23;5.78;;;;;;;16.30;100.00;100946.75;6168900;28;20050;-96
2023/08/13 05:38:01;;;;;;;10.32;6.85;;;;;;;16.41;100.00;100943.06;6167551;28;20049;-96
2023/08/13 05:41:05;;;;;;;8.55;6.10;;;;;;;16.51;100.00;100958.69;6178561;28;20100;-96
2023/08/13 05:44:16;;;;;;;13.02;5.90;;;;;;;16.58;100.00;100952.72;6181299;28;20508;-96
2023/08/13 05:47:18;;;;;;;7.72;5.85;;;;;;;16.64;100.00;100948.66;6160413;28;20066;-95
2023/08/13 05:50:22;;;;;;;8.65;5.57;;;;;;;16.70;100.00;100947.25;6161655;28;20047;-96
2023/08/13 05:53:27;;;;;;;6.00;5.13;;;;;;;16.78;100.00;100942.13;6168931;28;20049;-96
2023/08/13 05:56:30;;;;;;;6.40;5.60;;;;;;;16.82;100.00;100948.69;6147226;28;20124;-96
2023/08/13 05:59:33;;;;;;;11.75;5.57;;;;;;;16.85;100.00;100942.34;6176419;28;20056;-96
2023/08/13 06:02:36;;;;;;;7.13;4.28;;;;;;;16.96;100.00;100950.75;6162220;28;20072;-96
2023/08/13 06:05:40;;;;;;;8.85;5.18;;;;;;;17.02;100.00;100949.34;6168281;28;20046;-96
2023/08/13 06:08:43;;;;;;;7.95;6.07;;;;;;;17.03;100.00;100958.00;6153271;28;20512;-96
2023/08/13 06:11:48;;;;;;;5.22;4.32;;;;;;;17.00;100.00;100951.28;6192709;28;20071;-96
2023/08/13 06:14:50;;;;;;;7.20;4.43;;;;;;;16.99;100.00;100960.94;6162629;28;20094;-96
2023/08/13 06:17:53;;;;;;;4.97;4.40;;;;;;;17.01;100.00;100969.41;6161388;28;20051;-96
2023/08/13 06:20:55;;;;;;;6.07;3.83;;;;;;;17.00;100.00;100970.41;6167832;28;20567;-96
2023/08/13 06:23:58;;;;;;;9.13;4.07;;;;;;;17.06;100.00;100974.19;6181073;28;20046;-96
2023/08/13 06:27:00;;;;;;;6.47;3.90;;;;;;;17.08;100.00;100977.50;6159889;28;20055;-96
2023/08/13 06:30:12;;;;;;;6.35;4.00;;;;;;;17.14;100.00;100971.66;6161207;28;20163;-95
2023/08/13 06:33:14;;;;;;;5.18;4.00;;;;;;;17.20;100.00;100978.06;6163808;28;20745;-95
2023/08/13 06:36:17;;;;;;;8.20;3.95;;;;;;;17.24;100.00;100979.38;6166999;28;20046;-96
2023/08/13 06:39:21;;;;;;;5.13;3.70;;;;;;;17.28;100.00;100983.34;6169269;28;20499;-96
2023/08/13 06:42:24;;;;;;;8.95;4.03;;;;;;;17.37;100.00;100986.84;6169041;28;20074;-96
2023/08/13 06:45:29;;;;;;;6.20;4.43;;;;;;;17.41;100.00;100991.59;6166296;28;20054;-95
2023/08/13 06:48:38;;;;;;;6.25;3.85;;;;;;;17.46;100.00;100995.56;6152720;28;20393;-95
2023/08/13 06:51:41;;;;;;;4.78;3.80;;;;;;;17.49;100.00;100987.38;6147759;28;20051;-96
2023/08/13 06:54:43;;;;;;;5.70;4.00;;;;;;;17.50;100.00;100989.06;6189683;28;20121;-96
2023/08/13 06:57:46;;;;;;;6.95;3.67;;;;;;;17.56;100.00;100991.03;6162042;28;20568;-96
2023/08/13 07:00:49;;;;;;;6.22;3.40;;;;;;;17.62;100.00;100990.44;6167093;28;20106;-96
2023/08/13 07:03:51;;;;;;;5.40;3.70;;;;;;;17.64;100.00;100994.53;6184044;28;20138;-96
2023/08/13 07:06:54;;;;;;;5.68;3.28;;;;;;;17.70;100.00;100992.25;6199181;28;20043;-96
2023/08/13 07:09:58;;;;;;;4.90;3.58;;;;;;;17.72;100.00;100983.28;6181232;28;20058;-96
2023/08/13 07:13:01;;;;;;;5.38;3.40;;;;;;;17.79;100.00;100991.34;6168181;28;20124;-96
2023/08/13 07:16:09;;;;;;;7.57;3.45;;;;;;;17.84;100.00;100994.34;6169709;28;20107;-96
2023/08/13 07:19:13;;;;;;;4.38;3.25;;;;;;;17.88;100.00;100990.41;6196732;28;20047;-96
2023/08/13 07:22:16;;;;;;;6.82;3.38;;;;;;;17.95;100.00;100991.41;6200283;28;20039;-96
2023/08/13 07:25:20;;;;;;;6.35;3.72;;;;;;;17.96;100.00;100993.06;6196670;28;20062;-96
2023/08/13 07:28:22;;;;;;;6.82;3.25;;;;;;;18.00;100.00;100996.19;6167322;28;20053;-96
2023/08/13 07:31:26;;;;;;;8.32;3.10;;;;;;;18.03;100.00;100998.47;6197511;28;20089;-95
2023/08/13 07:34:28;;;;;;;4.95;2.92;;;;;;;18.13;100.00;100998.34;6166984;28;20034;-96
2023/08/13 07:37:30;;;;;;;4.80;2.78;;;;;;;18.14;100.00;100995.59;6184642;28;20564;-96
2023/08/13 07:40:34;;;;;;;6.88;3.10;;;;;;;18.13;100.00;101003.59;6197859;28;20045;-96
2023/08/13 07:43:36;;;;;;;5.75;2.80;;;;;;;18.20;100.00;100999.34;6167627;28;21605;-96
2023/08/13 07:46:38;;;;;;;6.03;2.72;;;;;;;18.20;100.00;101002.78;6167488;28;20097;-96
2023/08/13 07:49:41;;;;;;;6.13;2.30;;;;;;;18.20;100.00;100994.94;6166367;28;20054;-96
2023/08/13 07:52:46;;;;;;;6.07;2.22;;;;;;;18.25;100.00;100995.28;6160671;28;20514;-96
2023/08/13 07:55:49;;;;;;;3.28;2.38;;;;;;;18.28;100.00;101000.22;6165876;28;20046;-96
2023/08/13 07:58:54;;;;;;;3.05;2.00;;;;;;;18.37;100.00;100993.19;6159957;28;20042;-96
2023/08/13 08:02:05;;;;;;;5.78;2.25;;;;;;;18.39;100.00;100993.03;6159049;28;20130;-96
2023/08/13 08:05:12;;;;;;;5.20;2.10;;;;;;;18.45;100.00;100997.63;6164850;28;20537;-96
2023/08/13 08:08:14;;;;;;;5.82;2.40;;;;;;;18.39;100.00;101006.13;6182056;28;20047;-96
2023/08/13 08:11:17;;;;;;;4.72;2.33;;;;;;;18.55;100.00;101000.09;6157284;28;20058;-96
2023/08/13 08:14:19;;;;;;;6.30;2.20;;;;;;;18.49;100.00;100988.47;6167871;28;20073;-96
2023/08/13 08:17:27;;;;;;;12.27;2.50;;;;;;;18.62;100.00;100972.25;6165345;28;20050;-96
2023/08/13 08:20:30;;;;;;;7.90;2.42;;;;;;;18.72;100.00;100976.34;6169306;28;20043;-96
2023/08/13 08:23:38;;;;;;;4.60;2.10;;;;;;;18.75;100.00;100977.00;6177240;28;20043;-96
2023/08/13 08:26:47;;;;;;;6.22;2.15;;;;;;;18.95;100.00;100967.84;6176070;28;20048;-96
2023/08/13 08:29:59;;;;;;;6.40;2.10;;;;;;;19.06;100.00;100964.09;6163816;28;20062;-96
2023/08/13 08:33:06;;;;;;;7.47;2.10;;;;;;;19.11;100.00;100967.84;6178822;28;20050;-96
2023/08/13 08:36:09;;;;;;;6.68;2.05;;;;;;;19.24;100.00;100969.13;6230386;23;20144;-94
2023/08/13 08:39:12;;;;;;;6.72;2.00;;;;;;;19.52;100.00;100957.22;6181078;28;20133;-95
2023/08/13 08:42:17;;;;;;;5.18;2.78;;;;;;;19.75;100.00;100938.13;6173966;28;20059;-94
2023/08/13 08:45:22;;;;;;;3.53;1.80;;;;;;;19.67;100.00;100917.97;6188836;28;20126;-96
2023/08/13 08:48:50;;;;;;;7.70;2.20;;;;;;;19.64;100.00;100910.41;6176771;28;20047;-96
2023/08/13 08:51:58;;;;;;;4.40;1.67;;;;;;;19.68;100.00;100924.06;6168648;28;20508;-96
2023/08/13 08:55:03;;;;;;;3.60;1.80;;;;;;;19.67;100.00;100922.38;6164271;28;20049;-94
2023/08/13 08:58:09;;;;;;;5.72;2.10;;;;;;;19.67;100.00;100914.50;6165557;28;20126;-96
2023/08/13 09:01:12;;;;;;;3.90;1.83;;;;;;;19.74;100.00;100908.44;6170473;28;20055;-94
2023/08/13 09:04:14;;;;;;;4.82;1.77;;;;;;;19.86;100.00;100895.72;6170228;28;20074;-95
2023/08/13 09:07:17;;;;;;;2.92;1.20;;;;;;;19.94;100.00;100890.41;6173366;28;20043;-95
2023/08/13 09:10:19;;;;;;;4.03;1.70;;;;;;;19.97;100.00;100895.34;6167484;28;20043;-94
2023/08/13 09:13:21;;;;;;;2.53;1.33;;;;;;;20.00;100.00;100884.47;6171127;28;20525;-95
2023/08/13 09:16:24;;;;;;;5.40;1.67;;;;;;;20.14;100.00;100889.97;6170046;28;20053;-96
2023/08/13 09:19:28;;;;;;;3.42;1.88;;;;;;;20.10;100.00;100870.28;6165831;28;20055;-96
2023/08/13 09:22:36;;;;;;;3.40;1.60;;;;;;;20.07;100.00;100862.75;6198245;28;20046;-96
2023/08/13 09:25:38;;;;;;;2.45;1.20;;;;;;;20.21;100.00;100870.69;6177382;28;20049;-95
2023/08/13 09:28:44;;;;;;;3.33;1.40;;;;;;;20.33;100.00;100862.41;6156701;28;20051;-93
2023/08/13 09:31:48;;;;;;;4.75;2.10;;;;;;;20.39;100.00;100853.78;6178603;28;20120;-96
2023/08/13 09:34:53;;;;;;;8.23;1.85;;;;;;;20.56;100.00;100867.66;6181259;28;20402;-96
2023/08/13 09:37:57;;;;;;;4.90;1.70;;;;;;;20.41;100.00;100854.44;6178330;28;20043;-94
2023/08/13 09:41:00;;;;;;;3.88;1.50;;;;;;;20.53;100.00;100863.53;6172094;28;20038;-95
2023/08/13 09:44:08;;;;;;;3.00;1.35;;;;;;;20.73;100.00;100847.28;6179039;28;20039;-94
2023/08/13 09:47:17;;;;;;;5.28;1.50;;;;;;;20.86;100.00;100856.16;6176003;28;20748;-95
2023/08/13 09:50:20;;;;;;;3.10;1.45;;;;;;;21.03;100.00;100845.47;6175259;28;20054;-95
2023/08/13 09:53:25;;;;;;;4.40;1.70;;;;;;;21.10;100.00;100850.84;6171513;28;20051;-95
2023/08/13 09:56:30;;;;;;;3.92;1.52;;;;;;;21.23;100.00;100843.09;6177279;28;20046;-96
2023/08/13 09:59:36;;;;;;;4.40;1.70;;;;;;;21.44;100.00;100839.72;6192856;28;20416;-95
2023/08/13 10:02:46;;;;;;;3.70;1.45;;;;;;;21.54;100.00;100842.91;6180516;28;20045;-95
2023/08/13 10:05:49;;;;;;;4.00;1.85;;;;;;;21.41;100.00;100846.19;6180108;28;20455;-95
2023/08/13 10:08:52;;;;;;;4.88;1.70;;;;;;;21.26;100.00;100826.91;6182075;28;20053;-94
2023/08/13 10:11:55;;;;;;;3.60;1.70;;;;;;;21.38;100.00;100837.81;6180998;28;20041;-96
2023/08/13 10:14:59;;;;;;;4.70;1.27;;;;;;;21.49;100.00;100840.81;6174948;28;20050;-96
2023/08/13 10:18:02;;;;;;;3.15;1.58;;;;;;;21.67;100.00;100832.50;6178542;28;20039;-95
2023/08/13 10:21:06;;;;;;;3.38;1.40;;;;;;;21.80;100.00;100836.28;6171976;28;20039;-96
2023/08/13 10:24:15;;;;;;;4.85;1.77;;;;;;;21.93;100.00;100834.56;6174107;28;20042;-95
2023/08/13 10:27:21;;;;;;;3.47;1.60;;;;;;;21.84;100.00;100829.63;6165408;28;20039;-94
2023/08/13 10:30:23;;;;;;;6.15;2.00;;;;;;;21.82;100.00;100831.63;6173408;28;20128;-93
2023/08/13 10:33:29;;;;;;;4.82;1.60;;;;;;;21.83;100.00;100828.00;6173191;28;20154;-94
2023/08/13 10:36:52;;;;;;;4.15;1.60;;;;;;;22.12;100.00;100830.50;6170542;28;20733;-95
2023/08/13 10:39:54;;;;;;;3.72;1.88;;;;;;;22.45;100.00;100835.25;6173541;28;20039;-95
2023/08/13 10:42:58;;;;;;;3.97;1.67;;;;;;;22.70;100.00;100834.81;6164651;28;20038;-94
2023/08/13 10:46:04;;;;;;;3.63;1.58;;;;;;;23.00;100.00;100835.41;6166431;28;20212;-94
2023/08/13 10:49:06;;;;;;;4.53;1.50;;;;;;;23.15;100.00;100835.28;6175823;28;20484;-94
2023/08/13 10:52:09;;;;;;;2.95;1.65;;;;;;;23.20;100.00;100827.59;6171202;28;20061;-95
2023/08/13 10:55:11;;;;;;;3.47;1.48;;;;;;;23.01;100.00;100815.94;6168068;28;20053;-94
2023/08/13 10:58:26;;;;;;;3.10;1.55;;;;;;;22.71;100.00;100815.34;6170386;28;20042;-93
2023/08/13 11:01:28;;;;;;;4.07;1.70;;;;;;;22.70;100.00;100817.16;6173457;28;20027;-93
2023/08/13 11:04:31;;;;;;;5.53;2.42;;;;;;;22.96;100.00;100819.13;6172410;28;20043;-93
2023/08/13 11:07:34;;;;;;;3.95;1.90;;;;;;;23.28;100.00;100810.75;6175888;28;20089;-93
2023/08/13 11:10:37;;;;;;;3.35;1.75;;;;;;;23.51;100.00;100810.44;6175266;28;20042;-93
2023/08/13 11:13:39;;;;;;;3.67;1.70;;;;;;;23.63;100.00;100811.50;6172767;28;20034;-93
2023/08/13 11:16:41;;;;;;;4.18;1.95;;;;;;;23.71;100.00;100805.19;6163704;28;20053;-93
2023/08/13 11:19:43;;;;;;;5.47;1.80;;;;;;;23.94;100.00;100804.84;6171609;28;20405;-93
2023/08/13 11:22:46;;;;;;;6.60;2.58;;;;;;;24.02;100.00;100807.28;6173487;28;20507;-92
2023/08/13 11:25:49;;;;;;;4.93;2.10;;;;;;;24.13;100.00;100798.75;6169709;28;20066;-93
2023/08/13 11:28:51;;;;;;;2.72;2.08;;;;;;;24.45;100.00;100806.88;6166636;28;20057;-92
2023/08/13 11:31:53;;;;;;;2.67;1.55;;;;;;;24.73;100.00;100801.34;6168998;28;20069;-93
2023/08/13 11:34:57;;;;;;;3.30;1.60;;;;;;;24.96;100.00;100800.03;6170549;28;20035;-92
2023/08/13 11:37:59;;;;;;;4.63;1.60;;;;;;;25.13;100.00;100802.00;6166163;28;20139;-93
2023/08/13 11:41:16;;;;;;;2.97;1.70;;;;;;;25.16;100.00;100800.78;6156261;28;20046;-93
2023/08/13 11:44:19;;;;;;;3.33;1.98;;;;;;;25.26;100.00;100797.69;6166682;28;20675;-92
2023/08/13 11:47:26;;;;;;;6.95;1.58;;;;;;;25.30;100.00;100801.56;6170033;28;20047;-93
2023/08/13 11:50:32;;;;;;;4.93;1.67;;;;;;;25.19;100.00;100802.22;6175557;28;20125;-92
2023/08/13 11:53:43;;;;;;;5.80;2.15;;;;;;;25.25;100.00;100790.78;6168226;28;20046;-92
2023/08/13 11:56:50;;;;;;;3.95;1.55;;;;;;;25.18;100.00;100787.34;6173677;28;20049;-93
2023/08/13 11:59:52;;;;;;;2.88;2.00;;;;;;;25.23;100.00;100793.63;6173371;28;20499;-93
2023/08/13 12:02:56;;;;;;;3.83;1.55;;;;;;;25.19;100.00;100792.41;6177546;28;20049;-92
2023/08/13 12:05:59;;;;;;;5.82;1.70;;;;;;;25.13;100.00;100796.69;6180113;28;20125;-93
2023/08/13 12:09:03;;;;;;;3.85;1.60;;;;;;;25.10;100.00;100785.72;6174856;28;20042;-93
2023/08/13 12:12:06;;;;;;;2.15;1.60;;;;;;;25.11;100.00;100768.78;6171518;28;20153;-92
2023/08/13 12:15:08;;;;;;;3.88;1.60;;;;;;;25.08;100.00;100779.81;6173852;28;20048;-92
2023/08/13 12:18:10;;;;;;;6.55;1.85;;;;;;;25.08;100.00;100774.53;6177935;28;20066;-92
2023/08/13 12:21:12;;;;;;;3.22;1.77;;;;;;;25.06;100.00;100776.56;6178708;28;20527;-92
2023/08/13 12:24:14;;;;;;;5.00;2.00;;;;;;;25.17;100.00;100777.75;6173605;28;20074;-92
2023/08/13 12:27:16;;;;;;;2.42;1.75;;;;;;;25.52;100.00;100776.34;6171902;28;20534;-93
2023/08/13 12:30:19;;;;;;;3.05;1.80;;;;;;;26.00;100.00;100772.34;6180779;28;20057;-92
2023/08/13 12:33:21;;;;;;;3.45;1.88;;;;;;;26.61;100.00;100779.56;6171377;28;20061;-92
2023/08/13 12:36:23;;;;;;;4.15;1.58;;;;;;;27.11;100.00;100772.44;6177438;28;20050;-93
2023/08/13 12:39:25;;;;;;;4.68;1.75;;;;;;;27.53;100.00;100773.31;6180287;28;20046;-92
2023/08/13 12:42:27;;;;;;;2.17;1.75;;;;;;;27.61;100.00;100772.97;6175729;28;20685;-93
2023/08/13 12:45:29;;;;;;;4.95;2.10;;;;;;;27.45;100.00;100774.44;6185557;28;20065;-93
2023/08/13 12:48:32;;;;;;;4.05;2.00;;;;;;;27.37;100.00;100776.59;6177593;28;20043;-94
2023/08/13 12:51:34;;;;;;;2.88;1.70;;;;;;;27.31;100.00;100777.53;6178877;28;20031;-94
2023/08/13 12:54:36;;;;;;;3.00;1.80;;;;;;;27.07;100.00;100777.38;6178071;28;20133;-94
2023/08/13 12:57:38;;;;;;;2.67;1.85;;;;;;;26.91;100.00;100775.34;6179513;28;20042;-93
2023/08/13 13:00:40;;;;;;;3.03;2.00;;;;;;;26.65;100.00;100771.94;6182819;28;20042;-94
2023/08/13 13:03:42;;;;;;;3.80;2.20;;;;;;;26.46;100.00;100767.63;6180960;28;20043;-95
2023/08/13 13:06:44;;;;;;;5.43;1.90;;;;;;;26.27;100.00;100767.63;6171391;28;20045;-95
2023/08/13 13:09:47;;;;;;;4.95;1.90;;;;;;;26.22;100.00;100759.50;6175136;28;20043;-95
2023/08/13 13:12:49;;;;;;;3.22;1.88;;;;;;;26.34;100.00;100767.56;6183201;28;20042;-95
2023/08/13 13:15:51;;;;;;;4.32;1.85;;;;;;;26.41;100.00;100763.81;6182172;28;20411;-95
2023/08/13 13:18:53;;;;;;;3.40;1.60;;;;;;;26.50;100.00;100761.66;6177343;28;20039;-94
2023/08/13 13:21:55;;;;;;;3.63;1.77;;;;;;;26.46;100.00;100763.16;6178922;28;20051;-94
2023/08/13 13:24:56;;;;;;;2.85;1.70;;;;;;;26.37;100.00;100767.13;6176539;28;20054;-94
2023/08/13 13:28:00;;;;;;;2.13;1.70;;;;;;;26.29;100.00;100765.56;6171477;28;20497;-94
2023/08/13 13:31:03;;;;;;;2.20;1.77;;;;;;;26.13;100.00;100761.63;6173564;28;20053;-94
2023/08/13 13:34:05;;;;;;;4.97;1.77;;;;;;;25.94;100.00;100762.63;6172357;28;20491;-94
2023/08/13 13:37:07;;;;;;;2.42;1.52;;;;;;;25.91;100.00;100763.88;6172433;28;20039;-94
2023/08/13 13:40:10;;;;;;;3.03;1.60;;;;;;;26.01;100.00;100760.69;6173673;28;20042;-95
2023/08/13 13:43:12;;;;;;;2.70;1.58;;;;;;;26.14;100.00;100755.28;6173586;28;20799;-95
2023/08/13 13:46:15;;;;;;;5.88;1.90;;;;;;;26.29;100.00;100760.25;6180746;28;20197;-93
2023/08/13 13:49:18;;;;;;;4.30;1.48;;;;;;;26.30;100.00;100755.75;6173659;28;20050;-95
2023/08/13 13:52:19;;;;;;;3.90;1.60;;;;;;;26.37;100.00;100746.69;6178674;28;20062;-94
2023/08/13 13:55:22;;;;;;;3.33;1.42;;;;;;;26.39;100.00;100746.47;6172737;28;20508;-93
2023/08/13 13:58:24;;;;;;;6.78;1.83;;;;;;;26.45;100.00;100748.25;6178951;28;20492;-94
2023/08/13 14:01:28;;;;;;;4.28;1.90;;;;;;;26.46;100.00;100735.78;6179461;28;20146;-94
2023/08/13 14:04:29;;;;;;;3.80;1.70;;;;;;;26.43;100.00;100732.56;6168483;28;20043;-94
2023/08/13 14:07:32;;;;;;;2.08;1.38;;;;;;;26.43;100.00;100735.22;6180196;28;20161;-94